Time;durP1;ratioP1;P1;durP2;ratioP2;P2;SDS_P1;SDS_P2;PMS_P1;PMS_P2;Temp;Humidity;BMP_temperature;BMP_pressure;BME280_temperature;BME280_humidity;BME280_pressure;Samples;Min_cycle;Max_cycle;Signal;HPM_P1;HPM_P2
2021/05/19 00:00:15;;;;;;;14.63;10.80;;;;;;;;;;5028737;28;20244;-69
2021/05/19 00:02:40;;;;;;;13.07;10.50;;;;;;;;;;5020747;28;20229;-68
2021/05/19 00:05:06;;;;;;;14.03;10.63;;;;;;;;;;5027927;28;20198;-68
2021/05/19 00:07:31;;;;;;;15.87;11.07;;;;;;;;;;5022675;28;20546;-69
2021/05/19 00:09:57;;;;;;;16.20;10.87;;;;;;;;;;5029122;28;20214;-68
2021/05/19 00:12:22;;;;;;;14.77;11.67;;;;;;;;;;5021659;28;20198;-68
2021/05/19 00:14:48;;;;;;;17.40;12.70;;;;;;;;;;5028850;28;20568;-68
2021/05/19 00:17:13;;;;;;;15.70;11.67;;;;;;;;;;5022122;28;21174;-68
2021/05/19 00:19:38;;;;;;;15.17;10.87;;;;;;;;;;5028639;28;20354;-68
2021/05/19 00:22:04;;;;;;;18.33;12.43;;;;;;;;;;5029637;28;20186;-68
2021/05/19 00:24:29;;;;;;;15.70;12.13;;;;;;;;;;5022177;28;20184;-68
2021/05/19 00:26:54;;;;;;;15.20;11.13;;;;;;;;;;5029566;28;20359;-68
2021/05/19 00:29:20;;;;;;;14.17;11.37;;;;;;;;;;5021046;28;20272;-68
2021/05/19 00:31:45;;;;;;;15.03;12.20;;;;;;;;;;5030125;28;20294;-68
2021/05/19 00:34:12;;;;;;;15.70;12.20;;;;;;;;;;5020151;28;20520;-68
2021/05/19 00:36:38;;;;;;;15.13;11.97;;;;;;;;;;5027812;28;20188;-68
2021/05/19 00:39:06;;;;;;;14.90;11.97;;;;;;;;;;5019149;28;21323;-68
2021/05/19 00:41:31;;;;;;;19.70;13.43;;;;;;;;;;5030307;28;20181;-68
2021/05/19 00:44:08;;;;;;;22.73;13.60;;;;;;;;;;5021084;28;20637;-68
2021/05/19 00:46:34;;;;;;;16.63;12.77;;;;;;;;;;5029735;28;20189;-68
2021/05/19 00:49:00;;;;;;;18.13;13.40;;;;;;;;;;5022703;28;20198;-68
2021/05/19 00:51:27;;;;;;;15.60;12.77;;;;;;;;;;5029104;28;20201;-68
2021/05/19 00:53:53;;;;;;;16.83;12.95;;;;;;;;;;5028897;28;20192;-68
2021/05/19 00:56:18;;;;;;;17.13;13.17;;;;;;;;;;5019737;28;20206;-68
2021/05/19 00:58:45;;;;;;;15.47;12.70;;;;;;;;;;5029638;28;20204;-68
2021/05/19 01:01:10;;;;;;;14.47;12.07;;;;;;;;;;5020070;28;20604;-68
2021/05/19 01:03:37;;;;;;;13.60;12.13;;;;;;;;;;5028717;28;20716;-68
2021/05/19 01:06:06;;;;;;;15.52;12.93;;;;;;;;;;5020928;28;20311;-68
2021/05/19 01:11:16;;;;;;;20.42;14.32;;;;;;;;;;5019591;28;20729;-68
2021/05/19 01:13:43;;;;;;;16.88;13.48;;;;;;;;;;5028817;28;20197;-68
2021/05/19 01:16:09;;;;;;;20.38;14.35;;;;;;;;;;5020541;28;20658;-68
2021/05/19 01:18:36;;;;;;;18.05;13.68;;;;;;;;;;5028573;28;20253;-68
2021/05/19 01:21:02;;;;;;;19.13;14.18;;;;;;;;;;5018617;28;20194;-68
2021/05/19 01:23:29;;;;;;;17.90;14.20;;;;;;;;;;5030242;28;20236;-68
2021/05/19 01:25:55;;;;;;;17.23;13.55;;;;;;;;;;5021036;28;20572;-68
2021/05/19 01:28:20;;;;;;;17.10;14.53;;;;;;;;;;5028419;28;20194;-68
2021/05/19 01:30:46;;;;;;;19.50;14.70;;;;;;;;;;5028769;28;20241;-68
2021/05/19 01:33:12;;;;;;;20.00;14.73;;;;;;;;;;5020432;28;20192;-68
2021/05/19 01:35:38;;;;;;;19.87;14.37;;;;;;;;;;5028867;28;20215;-68
2021/05/19 01:38:06;;;;;;;18.20;14.97;;;;;;;;;;5018957;28;20197;-68
2021/05/19 01:40:32;;;;;;;20.07;15.67;;;;;;;;;;5028751;28;20190;-68
2021/05/19 01:42:58;;;;;;;22.80;16.03;;;;;;;;;;5020490;28;20545;-68
2021/05/19 01:45:25;;;;;;;20.73;16.27;;;;;;;;;;5026473;28;20208;-68
2021/05/19 01:47:52;;;;;;;21.43;16.23;;;;;;;;;;5018243;28;20226;-68
2021/05/19 01:50:23;;;;;;;21.43;17.13;;;;;;;;;;5026305;28;20549;-68
2021/05/19 01:52:52;;;;;;;23.60;17.50;;;;;;;;;;5021130;28;20190;-68
2021/05/19 01:55:18;;;;;;;22.60;17.20;;;;;;;;;;5028882;28;22870;-68
2021/05/19 01:57:46;;;;;;;20.67;16.10;;;;;;;;;;5019752;28;20204;-68
2021/05/19 02:00:13;;;;;;;22.30;15.97;;;;;;;;;;5026501;28;20184;-68
2021/05/19 02:02:39;;;;;;;20.63;16.27;;;;;;;;;;5027485;28;20218;-68
2021/05/19 02:05:05;;;;;;;18.77;15.90;;;;;;;;;;5018944;28;20189;-68
2021/05/19 02:07:35;;;;;;;19.70;16.70;;;;;;;;;;5029883;28;20193;-68
2021/05/19 02:10:00;;;;;;;19.40;15.90;;;;;;;;;;5020634;28;20931;-68
2021/05/19 02:12:26;;;;;;;20.77;15.73;;;;;;;;;;5029362;28;20182;-68
2021/05/19 02:14:51;;;;;;;18.73;15.57;;;;;;;;;;5020834;28;20206;-68
2021/05/19 02:17:16;;;;;;;20.87;14.97;;;;;;;;;;5027790;28;20190;-68
2021/05/19 02:19:42;;;;;;;18.30;15.03;;;;;;;;;;5019930;28;20197;-68
2021/05/19 02:22:07;;;;;;;20.10;13.87;;;;;;;;;;5029779;28;20256;-69
2021/05/19 02:24:33;;;;;;;18.00;14.70;;;;;;;;;;5018997;28;20272;-68
2021/05/19 02:26:58;;;;;;;22.60;16.23;;;;;;;;;;5028794;28;20185;-68
2021/05/19 02:29:24;;;;;;;19.27;15.87;;;;;;;;;;5019248;28;20213;-68
2021/05/19 02:31:50;;;;;;;19.57;14.40;;;;;;;;;;5028077;28;20197;-68
2021/05/19 02:34:15;;;;;;;20.70;14.77;;;;;;;;;;5027186;28;20213;-68
2021/05/19 02:36:41;;;;;;;19.83;14.67;;;;;;;;;;5021410;28;20200;-68
2021/05/19 02:39:11;;;;;;;22.80;15.17;;;;;;;;;;5027114;28;20178;-68
2021/05/19 02:41:38;;;;;;;23.77;17.50;;;;;;;;;;5019541;28;20693;-68
2021/05/19 02:44:05;;;;;;;27.47;18.30;;;;;;;;;;5026650;28;20201;-68
2021/05/19 02:46:31;;;;;;;23.80;18.40;;;;;;;;;;5018283;28;20285;-68
2021/05/19 02:49:01;;;;;;;26.77;19.37;;;;;;;;;;5026632;28;20309;-68
2021/05/19 02:51:32;;;;;;;29.80;20.00;;;;;;;;;;5019342;28;20624;-68
2021/05/19 02:53:57;;;;;;;24.83;18.27;;;;;;;;;;5028759;28;20194;-68
2021/05/19 02:56:23;;;;;;;27.13;19.90;;;;;;;;;;5018891;28;20225;-68
2021/05/19 02:58:48;;;;;;;26.17;19.33;;;;;;;;;;5028550;28;20182;-68
2021/05/19 03:01:14;;;;;;;27.93;19.90;;;;;;;;;;5018116;28;20205;-68
2021/05/19 03:03:39;;;;;;;21.77;18.00;;;;;;;;;;5024973;28;20186;-69
2021/05/19 03:06:05;;;;;;;23.37;18.73;;;;;;;;;;5026345;28;20582;-69
2021/05/19 03:08:30;;;;;;;26.27;20.17;;;;;;;;;;5020249;28;20197;-68
2021/05/19 03:10:55;;;;;;;24.53;17.93;;;;;;;;;;5026374;28;20185;-69
2021/05/19 03:13:21;;;;;;;27.40;19.60;;;;;;;;;;5019649;28;20264;-69
2021/05/19 03:15:46;;;;;;;25.70;17.43;;;;;;;;;;5029566;28;20339;-69
2021/05/19 03:18:11;;;;;;;26.03;18.83;;;;;;;;;;5018447;28;20189;-68
2021/05/19 03:20:37;;;;;;;26.63;16.40;;;;;;;;;;5027669;28;20189;-69
2021/05/19 03:23:02;;;;;;;23.47;16.47;;;;;;;;;;5018332;28;20197;-67
2021/05/19 03:25:27;;;;;;;20.13;15.03;;;;;;;;;;5025720;28;20268;-69
2021/05/19 03:27:53;;;;;;;23.33;16.17;;;;;;;;;;5018330;28;20473;-69
2021/05/19 03:30:19;;;;;;;19.50;15.43;;;;;;;;;;5024426;28;20250;-70
2021/05/19 03:32:45;;;;;;;22.90;16.37;;;;;;;;;;5020174;28;20541;-69
2021/05/19 03:35:11;;;;;;;22.60;16.23;;;;;;;;;;5025768;28;20206;-69
2021/05/19 03:37:38;;;;;;;23.27;15.23;;;;;;;;;;5026467;28;20626;-69
2021/05/19 03:40:06;;;;;;;21.43;15.83;;;;;;;;;;5018156;28;20250;-69
2021/05/19 03:42:31;;;;;;;20.40;15.90;;;;;;;;;;5029930;28;20190;-69
2021/05/19 03:44:57;;;;;;;21.67;15.43;;;;;;;;;;5019510;28;20189;-69
2021/05/19 03:47:22;;;;;;;20.33;15.53;;;;;;;;;;5027111;28;20222;-69
2021/05/19 03:49:49;;;;;;;21.30;15.33;;;;;;;;;;5019273;28;20190;-69
2021/05/19 03:52:16;;;;;;;20.40;16.50;;;;;;;;;;5027686;28;20193;-69
2021/05/19 03:54:43;;;;;;;21.63;17.13;;;;;;;;;;5019358;28;20202;-72
2021/05/19 03:57:08;;;;;;;25.37;18.13;;;;;;;;;;5024582;28;20188;-69
2021/05/19 03:59:34;;;;;;;26.60;20.13;;;;;;;;;;5018916;28;20201;-69
2021/05/19 04:02:00;;;;;;;24.37;19.90;;;;;;;;;;5026640;28;20229;-69
2021/05/19 04:04:25;;;;;;;26.87;20.47;;;;;;;;;;5018879;28;20630;-69
2021/05/19 04:06:51;;;;;;;23.53;17.77;;;;;;;;;;5028580;28;20194;-69
2021/05/19 04:09:16;;;;;;;22.95;18.40;;;;;;;;;;5023782;28;20186;-70
2021/05/19 04:11:43;;;;;;;28.95;20.35;;;;;;;;;;5021313;28;20224;-69
2021/05/19 04:14:09;;;;;;;27.25;20.45;;;;;;;;;;5029241;28;20189;-69
2021/05/19 04:16:34;;;;;;;22.17;18.63;;;;;;;;;;5024364;28;20233;-69
2021/05/19 04:19:00;;;;;;;21.65;16.70;;;;;;;;;;5028815;28;20633;-70
2021/05/19 04:21:26;;;;;;;22.27;16.88;;;;;;;;;;5021791;28;20911;-70
2021/05/19 04:23:51;;;;;;;23.23;16.38;;;;;;;;;;5027932;28;20209;-69
2021/05/19 04:26:16;;;;;;;21.70;16.13;;;;;;;;;;5021237;28;20190;-69
2021/05/19 04:28:44;;;;;;;19.25;14.75;;;;;;;;;;5029787;28;20338;-69
2021/05/19 04:31:09;;;;;;;18.42;12.10;;;;;;;;;;5021628;28;20547;-69
2021/05/19 04:33:35;;;;;;;19.42;13.27;;;;;;;;;;5030026;28;20215;-69
2021/05/19 04:36:00;;;;;;;21.83;14.65;;;;;;;;;;5029375;28;20675;-70
2021/05/19 04:38:26;;;;;;;20.65;14.95;;;;;;;;;;5020098;28;20274;-69
2021/05/19 04:40:51;;;;;;;20.77;14.77;;;;;;;;;;5028350;28;20288;-70
2021/05/19 04:43:18;;;;;;;18.50;13.57;;;;;;;;;;5019529;28;20209;-70
2021/05/19 04:45:43;;;;;;;21.98;15.02;;;;;;;;;;5028463;28;20213;-69
2021/05/19 04:48:09;;;;;;;20.77;14.27;;;;;;;;;;5022392;28;20260;-69
2021/05/19 04:50:35;;;;;;;21.40;14.23;;;;;;;;;;5027294;28;20668;-69
2021/05/19 04:53:00;;;;;;;21.73;14.20;;;;;;;;;;5018510;28;20280;-70
2021/05/19 04:55:26;;;;;;;20.50;15.15;;;;;;;;;;5027084;28;20201;-70
2021/05/19 04:57:51;;;;;;;21.23;14.90;;;;;;;;;;5019934;28;20194;-70
2021/05/19 05:00:17;;;;;;;23.75;16.58;;;;;;;;;;5026278;28;20185;-70
2021/05/19 05:02:43;;;;;;;20.57;15.13;;;;;;;;;;5021364;28;20218;-70
2021/05/19 05:05:10;;;;;;;23.73;15.70;;;;;;;;;;5029044;28;20571;-70
2021/05/19 05:07:36;;;;;;;19.95;15.18;;;;;;;;;;5030087;28;20190;-70
2021/05/19 05:10:04;;;;;;;24.30;16.85;;;;;;;;;;5023735;28;20241;-70
2021/05/19 05:12:29;;;;;;;23.45;14.68;;;;;;;;;;5030626;28;20513;-70
2021/05/19 05:14:55;;;;;;;22.30;16.70;;;;;;;;;;5024781;28;20378;-70
2021/05/19 05:17:20;;;;;;;21.90;15.65;;;;;;;;;;5028076;28;20190;-70
2021/05/19 05:19:45;;;;;;;21.13;16.02;;;;;;;;;;5020607;28;20208;-70
2021/05/19 05:22:11;;;;;;;21.38;15.98;;;;;;;;;;5026041;28;20187;-70
2021/05/19 05:24:36;;;;;;;18.98;13.48;;;;;;;;;;5018105;28;20244;-70
2021/05/19 05:27:02;;;;;;;19.55;15.70;;;;;;;;;;5028313;28;20190;-70
2021/05/19 05:29:28;;;;;;;21.90;15.90;;;;;;;;;;5020603;28;20185;-71
2021/05/19 05:31:54;;;;;;;19.92;16.48;;;;;;;;;;5026640;28;20722;-70
2021/05/19 05:34:19;;;;;;;26.15;17.67;;;;;;;;;;5020197;28;20559;-70
2021/05/19 05:36:44;;;;;;;24.38;17.20;;;;;;;;;;5028422;28;20607;-70
2021/05/19 05:39:10;;;;;;;18.48;14.63;;;;;;;;;;5029642;28;20645;-70
2021/05/19 05:41:35;;;;;;;21.70;16.05;;;;;;;;;;5022166;28;20251;-70
2021/05/19 05:44:01;;;;;;;20.60;16.42;;;;;;;;;;5027847;28;20217;-71
2021/05/19 05:46:26;;;;;;;23.98;16.90;;;;;;;;;;5018598;28;20272;-69
2021/05/19 05:48:51;;;;;;;22.60;16.48;;;;;;;;;;5028801;28;20232;-70
2021/05/19 05:51:17;;;;;;;22.17;16.15;;;;;;;;;;5019864;28;20194;-69
2021/05/19 05:53:42;;;;;;;23.73;18.35;;;;;;;;;;5025593;28;20627;-70
2021/05/19 05:56:07;;;;;;;22.98;17.42;;;;;;;;;;5018978;28;20299;-71
2021/05/19 05:58:33;;;;;;;22.88;16.50;;;;;;;;;;5026304;28;20335;-69
2021/05/19 06:00:58;;;;;;;23.77;17.25;;;;;;;;;;5018534;28;20200;-69
2021/05/19 06:03:23;;;;;;;23.13;17.00;;;;;;;;;;5027875;28;20260;-69
2021/05/19 06:05:49;;;;;;;19.67;15.82;;;;;;;;;;5019464;28;20201;-69
2021/05/19 06:08:14;;;;;;;22.10;15.75;;;;;;;;;;5022407;28;20197;-69
2021/05/19 06:10:40;;;;;;;25.85;16.80;;;;;;;;;;5027245;28;20220;-69
2021/05/19 06:13:05;;;;;;;22.60;15.95;;;;;;;;;;5018772;28;20186;-69
2021/05/19 06:15:30;;;;;;;22.10;16.77;;;;;;;;;;5024951;28;20201;-68
2021/05/19 06:17:57;;;;;;;21.27;17.15;;;;;;;;;;5020351;28;20320;-69
2021/05/19 06:20:22;;;;;;;22.60;16.27;;;;;;;;;;5025385;28;20274;-69
2021/05/19 06:22:48;;;;;;;21.95;15.52;;;;;;;;;;5018207;28;20182;-69
2021/05/19 06:25:15;;;;;;;25.17;17.92;;;;;;;;;;5024682;28;20641;-69
2021/05/19 06:27:40;;;;;;;23.85;17.63;;;;;;;;;;5013207;28;20274;-69
2021/05/19 06:30:06;;;;;;;23.00;16.65;;;;;;;;;;5023669;28;20295;-69
2021/05/19 06:32:32;;;;;;;22.80;16.88;;;;;;;;;;5020570;28;22501;-69
2021/05/19 06:34:57;;;;;;;20.80;16.35;;;;;;;;;;5019213;28;20210;-70
2021/05/19 06:37:23;;;;;;;20.27;15.77;;;;;;;;;;5024260;28;20178;-69
2021/05/19 06:39:49;;;;;;;19.33;15.27;;;;;;;;;;5015772;28;20186;-70
2021/05/19 06:42:14;;;;;;;21.77;15.50;;;;;;;;;;5025866;28;20200;-69
2021/05/19 06:44:39;;;;;;;24.42;15.68;;;;;;;;;;5021540;28;20187;-70
2021/05/19 06:47:05;;;;;;;18.20;13.00;;;;;;;;;;5023793;28;22934;-69
2021/05/19 06:49:30;;;;;;;21.80;14.93;;;;;;;;;;5017518;28;20224;-69
2021/05/19 06:51:56;;;;;;;19.08;14.95;;;;;;;;;;5029747;28;20196;-70
2021/05/19 06:54:22;;;;;;;20.02;15.05;;;;;;;;;;5018506;28;20181;-70
2021/05/19 06:56:48;;;;;;;18.98;13.73;;;;;;;;;;5027787;28;20197;-69
2021/05/19 06:59:16;;;;;;;19.17;13.93;;;;;;;;;;5021661;28;20903;-70
2021/05/19 07:01:41;;;;;;;17.70;13.43;;;;;;;;;;5023714;28;20231;-70
2021/05/19 07:04:07;;;;;;;20.10;14.10;;;;;;;;;;5017764;28;20557;-69
2021/05/19 07:06:33;;;;;;;15.65;12.75;;;;;;;;;;5027678;28;20224;-69
2021/05/19 07:08:58;;;;;;;19.05;13.40;;;;;;;;;;5026921;28;20186;-70
2021/05/19 07:11:24;;;;;;;18.15;12.77;;;;;;;;;;5018659;28;20190;-70
2021/05/19 07:13:51;;;;;;;19.30;13.13;;;;;;;;;;5027918;28;20204;-69
2021/05/19 07:16:19;;;;;;;17.98;13.20;;;;;;;;;;5013594;28;20292;-69
2021/05/19 07:18:46;;;;;;;18.23;13.18;;;;;;;;;;5027299;28;20196;-69
2021/05/19 07:21:11;;;;;;;14.35;11.63;;;;;;;;;;5016560;28;20369;-69
2021/05/19 07:23:37;;;;;;;14.48;11.85;;;;;;;;;;5029313;28;20276;-69
2021/05/19 07:26:03;;;;;;;17.92;12.43;;;;;;;;;;5019731;28;20274;-69
2021/05/19 07:28:28;;;;;;;16.70;12.18;;;;;;;;;;5027050;28;20641;-69
2021/05/19 07:30:53;;;;;;;17.77;12.70;;;;;;;;;;5019751;28;20196;-69
2021/05/19 07:33:19;;;;;;;18.88;12.70;;;;;;;;;;5023544;28;20186;-69
2021/05/19 07:35:46;;;;;;;20.52;13.65;;;;;;;;;;5019335;28;20211;-69
2021/05/19 07:38:11;;;;;;;21.70;13.48;;;;;;;;;;5025094;28;20266;-68
2021/05/19 07:40:40;;;;;;;19.83;13.20;;;;;;;;;;5027950;28;20233;-69
2021/05/19 07:43:06;;;;;;;15.20;12.45;;;;;;;;;;5026280;28;20193;-69
2021/05/19 07:45:32;;;;;;;17.30;12.70;;;;;;;;;;5027116;28;20189;-69
2021/05/19 07:47:57;;;;;;;19.75;13.48;;;;;;;;;;5021766;28;20229;-69
2021/05/19 07:50:22;;;;;;;21.20;14.05;;;;;;;;;;5029329;28;20205;-70
2021/05/19 07:52:48;;;;;;;20.90;13.00;;;;;;;;;;5025532;28;20532;-69
2021/05/19 07:55:23;;;;;;;21.02;14.02;;;;;;;;;;5027232;28;20291;-70
2021/05/19 07:57:54;;;;;;;17.90;13.55;;;;;;;;;;5023317;28;20215;-70
2021/05/19 08:03:04;;;;;;;20.60;13.80;;;;;;;;;;5022928;28;20218;-67
2021/05/19 08:05:29;;;;;;;18.77;13.20;;;;;;;;;;5030380;28;20629;-69
2021/05/19 08:07:56;;;;;;;20.48;15.02;;;;;;;;;;5020866;28;20202;-69
2021/05/19 08:10:22;;;;;;;22.45;13.80;;;;;;;;;;5031354;28;20194;-69
2021/05/19 08:12:47;;;;;;;20.38;12.48;;;;;;;;;;5023252;28;20210;-68
2021/05/19 08:15:13;;;;;;;20.73;13.52;;;;;;;;;;5030036;28;20241;-70
2021/05/19 08:17:38;;;;;;;17.38;12.48;;;;;;;;;;5024980;28;20205;-70
2021/05/19 08:20:04;;;;;;;20.45;14.25;;;;;;;;;;5029453;28;20339;-69
2021/05/19 08:22:30;;;;;;;17.40;12.95;;;;;;;;;;5030266;28;20224;-70
2021/05/19 08:24:55;;;;;;;20.70;12.48;;;;;;;;;;5022359;28;20221;-70
2021/05/19 08:27:20;;;;;;;20.15;11.85;;;;;;;;;;5030224;28;20580;-68
2021/05/19 08:29:47;;;;;;;17.50;12.10;;;;;;;;;;5023054;28;20197;-68
2021/05/19 08:32:12;;;;;;;19.23;12.00;;;;;;;;;;5027840;28;20233;-69
2021/05/19 08:34:38;;;;;;;19.42;12.45;;;;;;;;;;5023749;28;20201;-69
2021/05/19 08:37:04;;;;;;;20.42;12.02;;;;;;;;;;5029572;28;20303;-69
2021/05/19 08:39:29;;;;;;;16.05;12.40;;;;;;;;;;5019616;28;20220;-69
2021/05/19 08:41:55;;;;;;;18.77;11.88;;;;;;;;;;5029335;28;20220;-69
2021/05/19 08:44:21;;;;;;;19.63;12.52;;;;;;;;;;5021435;28;20555;-69
2021/05/19 08:46:49;;;;;;;19.33;12.23;;;;;;;;;;5029563;28;20257;-69
2021/05/19 08:49:16;;;;;;;18.38;12.18;;;;;;;;;;5028704;28;20197;-68
2021/05/19 08:51:42;;;;;;;17.67;12.45;;;;;;;;;;5020369;28;20190;-69
2021/05/19 08:54:09;;;;;;;18.70;12.05;;;;;;;;;;5029182;28;20301;-69
2021/05/19 08:56:43;;;;;;;17.35;12.10;;;;;;;;;;5021483;28;20222;-69
2021/05/19 08:59:09;;;;;;;20.73;11.73;;;;;;;;;;5028359;28;20282;-69
2021/05/19 09:01:44;;;;;;;17.25;11.10;;;;;;;;;;5023742;28;20213;-69
2021/05/19 09:04:15;;;;;;;17.38;10.55;;;;;;;;;;5029928;28;20276;-71
2021/05/19 09:06:41;;;;;;;14.43;10.18;;;;;;;;;;5021322;28;20189;-70
2021/05/19 09:09:26;;;;;;;16.73;11.13;;;;;;;;;;5029807;28;20516;-68
2021/05/19 09:11:59;;;;;;;14.35;10.13;;;;;;;;;;5018017;28;20719;-68
2021/05/19 09:14:26;;;;;;;14.45;10.38;;;;;;;;;;5027305;28;20198;-68
2021/05/19 09:16:51;;;;;;;15.63;10.50;;;;;;;;;;5021202;28;20297;-69
2021/05/19 09:19:31;;;;;;;14.40;10.30;;;;;;;;;;5028973;28;20285;-68
2021/05/19 09:21:57;;;;;;;13.73;9.05;;;;;;;;;;5021674;28;20314;-68
2021/05/19 09:24:34;;;;;;;13.55;8.73;;;;;;;;;;5030674;28;20186;-68
2021/05/19 09:27:01;;;;;;;12.57;8.90;;;;;;;;;;5021186;28;20199;-68
2021/05/19 09:29:29;;;;;;;10.07;8.38;;;;;;;;;;5027580;28;20186;-69
2021/05/19 09:31:57;;;;;;;14.10;7.78;;;;;;;;;;5023551;28;20194;-69
2021/05/19 09:34:30;;;;;;;12.60;7.15;;;;;;;;;;5027653;28;20194;-67
2021/05/19 09:37:10;;;;;;;11.80;7.10;;;;;;;;;;5023637;28;20183;-69
2021/05/19 09:39:59;;;;;;;11.65;7.55;;;;;;;;;;5030188;28;20200;-67
2021/05/19 09:42:41;;;;;;;13.35;8.13;;;;;;;;;;5019648;28;20197;-68
2021/05/19 09:45:38;;;;;;;12.13;8.50;;;;;;;;;;5025786;28;20459;-69
2021/05/19 09:48:04;;;;;;;14.57;10.30;;;;;;;;;;5019833;28;20642;-69
2021/05/19 09:50:35;;;;;;;17.55;9.60;;;;;;;;;;5029797;28;20182;-70
2021/05/19 09:53:10;;;;;;;16.25;12.80;;;;;;;;;;5020656;28;21686;-68
2021/05/19 09:55:38;;;;;;;19.33;13.20;;;;;;;;;;5026300;28;20575;-69
2021/05/19 09:58:04;;;;;;;15.32;13.70;;;;;;;;;;5024295;28;20182;-69
2021/05/19 10:00:30;;;;;;;18.40;14.15;;;;;;;;;;5026057;28;20204;-70
2021/05/19 10:02:56;;;;;;;17.88;14.68;;;;;;;;;;5027501;28;20700;-71
2021/05/19 10:05:47;;;;;;;20.63;14.73;;;;;;;;;;5017532;28;20189;-69
2021/05/19 10:08:13;;;;;;;16.92;14.50;;;;;;;;;;5027429;28;20202;-68
2021/05/19 10:10:38;;;;;;;19.35;15.48;;;;;;;;;;5022330;28;20197;-68
2021/05/19 10:13:06;;;;;;;21.95;15.60;;;;;;;;;;5031011;28;20954;-68
2021/05/19 10:15:34;;;;;;;22.25;16.02;;;;;;;;;;5020269;28;20443;-69
2021/05/19 10:18:04;;;;;;;21.42;16.40;;;;;;;;;;5027439;28;20185;-69
2021/05/19 10:20:33;;;;;;;22.88;17.42;;;;;;;;;;5019355;28;20185;-68
2021/05/19 10:22:59;;;;;;;20.00;16.25;;;;;;;;;;5028286;28;20208;-68
2021/05/19 10:25:38;;;;;;;23.95;15.50;;;;;;;;;;5020117;28;20197;-70
2021/05/19 10:28:09;;;;;;;21.60;16.40;;;;;;;;;;5027023;28;20182;-68
2021/05/19 10:30:45;;;;;;;23.63;17.05;;;;;;;;;;5021684;28;20284;-68
2021/05/19 10:33:37;;;;;;;25.58;17.75;;;;;;;;;;5025221;28;20189;-68
2021/05/19 10:36:29;;;;;;;22.02;16.13;;;;;;;;;;5016130;28;20332;-67
2021/05/19 10:39:07;;;;;;;25.60;15.50;;;;;;;;;;5025991;28;20243;-69
2021/05/19 10:41:47;;;;;;;19.92;12.75;;;;;;;;;;5018008;28;20213;-69
2021/05/19 10:44:17;;;;;;;15.32;12.85;;;;;;;;;;5024013;28;20203;-69
2021/05/19 10:47:10;;;;;;;20.23;14.60;;;;;;;;;;5020522;28;20524;-69
2021/05/19 10:49:50;;;;;;;19.17;14.55;;;;;;;;;;5027066;28;20185;-69
2021/05/19 10:52:45;;;;;;;20.95;15.80;;;;;;;;;;5019159;28;20197;-68
2021/05/19 10:58:20;;;;;;;18.75;12.95;;;;;;;;;;5018590;28;20196;-69
2021/05/19 11:00:45;;;;;;;20.27;14.63;;;;;;;;;;5025462;28;20201;-70
2021/05/19 11:03:11;;;;;;;22.90;14.82;;;;;;;;;;5018215;28;20294;-68
2021/05/19 11:05:52;;;;;;;23.17;15.23;;;;;;;;;;5027660;28;20652;-68
2021/05/19 11:08:35;;;;;;;23.98;15.45;;;;;;;;;;5015893;28;20885;-68
2021/05/19 11:11:25;;;;;;;20.17;15.13;;;;;;;;;;5027236;28;20272;-68
2021/05/19 11:13:54;;;;;;;26.27;16.45;;;;;;;;;;5017905;28;20718;-69
2021/05/19 11:16:25;;;;;;;27.35;17.65;;;;;;;;;;5027650;28;20620;-68
2021/05/19 11:19:07;;;;;;;26.67;17.25;;;;;;;;;;5017183;28;20235;-68
2021/05/19 11:21:32;;;;;;;29.77;19.00;;;;;;;;;;5023787;28;20669;-71
2021/05/19 11:24:12;;;;;;;28.55;19.52;;;;;;;;;;5019650;28;20189;-71
2021/05/19 11:26:45;;;;;;;36.08;22.00;;;;;;;;;;5023784;28;20182;-71
2021/05/19 11:29:13;;;;;;;31.98;21.10;;;;;;;;;;5016611;28;20186;-71
2021/05/19 11:31:44;;;;;;;35.78;21.95;;;;;;;;;;5024568;28;20764;-69
2021/05/19 11:34:12;;;;;;;29.73;21.10;;;;;;;;;;5017537;28;20196;-69
2021/05/19 11:36:53;;;;;;;30.00;21.50;;;;;;;;;;5024246;28;20209;-71
2021/05/19 11:39:28;;;;;;;23.95;19.02;;;;;;;;;;5019173;28;20554;-71
2021/05/19 11:42:23;;;;;;;30.75;21.52;;;;;;;;;;5029651;28;20252;-71
2021/05/19 11:45:09;;;;;;;31.92;20.70;;;;;;;;;;5018793;28;20602;-71
2021/05/19 11:47:37;;;;;;;33.63;19.48;;;;;;;;;;5026796;28;20221;-72
2021/05/19 11:50:10;;;;;;;30.50;20.10;;;;;;;;;;5019477;28;20194;-72
2021/05/19 11:52:39;;;;;;;33.72;20.92;;;;;;;;;;5027332;28;20514;-68
2021/05/19 11:55:05;;;;;;;26.35;14.90;;;;;;;;;;5015705;28;20228;-69
2021/05/19 11:57:31;;;;;;;19.55;9.90;;;;;;;;;;5023777;28;20185;-69
2021/05/19 11:59:56;;;;;;;14.48;6.07;;;;;;;;;;5017792;28;20197;-70
2021/05/19 12:02:22;;;;;;;8.15;4.03;;;;;;;;;;5023996;28;20198;-73
2021/05/19 12:04:47;;;;;;;6.05;3.67;;;;;;;;;;5015704;28;20186;-75
2021/05/19 12:07:14;;;;;;;6.85;3.50;;;;;;;;;;5024473;28;20280;-72
2021/05/19 12:09:42;;;;;;;11.35;3.90;;;;;;;;;;5026929;28;20202;-71
2021/05/19 12:12:13;;;;;;;8.32;4.40;;;;;;;;;;5018817;28;20186;-71
2021/05/19 12:14:54;;;;;;;7.35;3.42;;;;;;;;;;5027914;28;20226;-70
2021/05/19 12:17:24;;;;;;;7.70;3.53;;;;;;;;;;5020191;28;20247;-73
2021/05/19 12:19:49;;;;;;;5.05;2.80;;;;;;;;;;5028881;28;20204;-72
2021/05/19 12:22:21;;;;;;;8.85;2.95;;;;;;;;;;5017219;28;20197;-73
2021/05/19 12:24:47;;;;;;;2.78;1.92;;;;;;;;;;5029340;28;20182;-72
2021/05/19 12:27:17;;;;;;;3.60;2.30;;;;;;;;;;5018163;28;20271;-72
2021/05/19 12:30:04;;;;;;;8.05;3.15;;;;;;;;;;5027371;28;20186;-71
2021/05/19 12:32:30;;;;;;;7.55;3.65;;;;;;;;;;5014203;28;20297;-70
2021/05/19 12:35:02;;;;;;;7.03;4.30;;;;;;;;;;5030705;28;20209;-71
2021/05/19 12:37:43;;;;;;;10.88;4.85;;;;;;;;;;5020386;28;20273;-70
2021/05/19 12:40:11;;;;;;;8.20;5.70;;;;;;;;;;5028459;28;20279;-71
2021/05/19 12:42:57;;;;;;;10.05;6.03;;;;;;;;;;5020149;28;20204;-70
2021/05/19 12:45:23;;;;;;;9.98;6.13;;;;;;;;;;5029700;28;20178;-70
2021/05/19 12:48:11;;;;;;;11.57;6.85;;;;;;;;;;5019373;28;20245;-70
2021/05/19 12:50:45;;;;;;;11.10;6.32;;;;;;;;;;5031293;28;21476;-70
2021/05/19 12:53:29;;;;;;;10.63;6.47;;;;;;;;;;5021172;28;20208;-69
2021/05/19 12:55:59;;;;;;;8.55;6.25;;;;;;;;;;5029860;28;20214;-70
2021/05/19 12:58:25;;;;;;;9.48;6.75;;;;;;;;;;5019665;28;20281;-69
2021/05/19 13:01:00;;;;;;;9.80;6.75;;;;;;;;;;5031825;28;20320;-69
2021/05/19 13:03:37;;;;;;;11.32;7.18;;;;;;;;;;5017427;28;20224;-69
2021/05/19 13:06:05;;;;;;;8.82;6.38;;;;;;;;;;5026286;28;20227;-69
2021/05/19 13:08:31;;;;;;;9.45;6.35;;;;;;;;;;5022024;28;20591;-69
2021/05/19 13:10:57;;;;;;;7.85;4.97;;;;;;;;;;5028089;28;20180;-69
2021/05/19 13:13:27;;;;;;;7.40;4.53;;;;;;;;;;5020511;28;20322;-69
2021/05/19 13:16:10;;;;;;;6.28;4.30;;;;;;;;;;5025972;28;20204;-69
2021/05/19 13:23:53;;;;;;;2.65;2.20;;;;;;;;;;5025448;28;20272;-69
2021/05/19 13:26:23;;;;;;;2.75;1.90;;;;;;;;;;5016078;28;20204;-69
2021/05/19 13:28:50;;;;;;;2.30;2.10;;;;;;;;;;5026801;28;20186;-69
2021/05/19 13:31:21;;;;;;;4.32;2.10;;;;;;;;;;5020816;28;20194;-68
2021/05/19 13:39:15;;;;;;;3.40;2.30;;;;;;;;;;5020469;28;20414;-68
2021/05/19 13:41:43;;;;;;;3.65;2.30;;;;;;;;;;5015818;28;20192;-69
2021/05/19 13:44:09;;;;;;;2.88;1.98;;;;;;;;;;5022134;28;20261;-68
2021/05/19 13:46:39;;;;;;;2.17;1.70;;;;;;;;;;5016530;28;20600;-69
2021/05/19 13:49:25;;;;;;;2.50;2.30;;;;;;;;;;5021287;28;20442;-68
2021/05/19 13:51:56;;;;;;;5.47;2.75;;;;;;;;;;5017569;28;20299;-68
2021/05/19 13:54:21;;;;;;;3.70;2.95;;;;;;;;;;5025494;28;20273;-69
2021/05/19 13:56:47;;;;;;;3.50;2.60;;;;;;;;;;5017632;28;20686;-68
2021/05/19 13:59:13;;;;;;;3.80;2.40;;;;;;;;;;5022631;28;22278;-68
2021/05/19 14:01:39;;;;;;;4.80;2.30;;;;;;;;;;5020108;28;20228;-68
2021/05/19 14:04:05;;;;;;;3.17;2.20;;;;;;;;;;5025261;28;20808;-68
2021/05/19 14:06:31;;;;;;;2.47;1.80;;;;;;;;;;5020463;28;20268;-68
2021/05/19 14:08:57;;;;;;;2.28;1.90;;;;;;;;;;5024093;28;20208;-68
2021/05/19 14:11:24;;;;;;;2.65;1.70;;;;;;;;;;5022556;28;20186;-68
2021/05/19 14:16:35;;;;;;;3.70;2.40;;;;;;;;;;5026916;28;20210;-68
2021/05/19 14:27:07;;;;;;;1.80;1.20;;;;;;;;;;5028926;28;20201;-68
2021/05/19 14:29:33;;;;;;;2.17;1.58;;;;;;;;;;5021206;28;20204;-69
2021/05/19 14:31:59;;;;;;;1.85;1.67;;;;;;;;;;5029053;28;20612;-69
2021/05/19 14:34:25;;;;;;;1.73;1.27;;;;;;;;;;5005559;28;20321;-69
2021/05/19 14:45:58;;;;;;;1.42;1.10;;;;;;;;;;5037933;28;20604;-68
2021/05/19 14:49:01;;;;;;;2.60;0.95;;;;;;;;;;5033294;28;20225;-69
2021/05/19 15:01:50;;;;;;;1.08;0.93;;;;;;;;;;5031220;28;20212;-69
2021/05/19 15:04:17;;;;;;;1.13;0.85;;;;;;;;;;5017206;28;20193;-69
2021/05/19 15:06:43;;;;;;;1.38;0.90;;;;;;;;;;5026593;28;20205;-68
2021/05/19 15:09:11;;;;;;;4.50;1.10;;;;;;;;;;5030126;28;20236;-69
2021/05/19 15:11:37;;;;;;;1.38;0.90;;;;;;;;;;5023472;28;20204;-70
2021/05/19 15:14:03;;;;;;;2.28;1.00;;;;;;;;;;5026011;28;20198;-69
2021/05/19 15:16:28;;;;;;;0.70;0.70;;;;;;;;;;5024230;28;20681;-68